Time;durP1;ratioP1;P1;durP2;ratioP2;P2;SDS_P1;SDS_P2;PMS_P1;PMS_P2;Temp;Humidity;BMP_temperature;BMP_pressure;BME280_temperature;BME280_humidity;BME280_pressure;Samples;Min_cycle;Max_cycle;Signal;HPM_P1;HPM_P2
2022/07/08 00:03:46;;;;;;;11.93;6.85;;;;;;;;;;8437441;28;20032;-90
2022/07/08 00:07:50;;;;;;;10.70;6.13;;;;;;;;;;8436002;28;20039;-90
2022/07/08 00:11:53;;;;;;;11.40;6.55;;;;;;;;;;8435161;28;20055;-91
2022/07/08 00:15:59;;;;;;;7.68;5.63;;;;;;;;;;8435906;28;20062;-95
2022/07/08 00:20:03;;;;;;;8.73;6.57;;;;;;;;;;8437269;28;20044;-94
2022/07/08 00:24:08;;;;;;;10.82;6.20;;;;;;;;;;8435470;28;20085;-92
2022/07/08 00:28:12;;;;;;;9.25;6.63;;;;;;;;;;8434495;28;20047;-93
2022/07/08 00:32:18;;;;;;;9.57;6.28;;;;;;;;;;8434635;28;20051;-94
2022/07/08 00:36:22;;;;;;;10.23;6.15;;;;;;;;;;8434040;28;20048;-94
2022/07/08 00:40:26;;;;;;;10.05;6.20;;;;;;;;;;8434066;28;20047;-94
2022/07/08 00:44:30;;;;;;;9.50;6.50;;;;;;;;;;8433802;28;20040;-93
2022/07/08 00:48:37;;;;;;;9.00;6.60;;;;;;;;;;8433932;28;20040;-93
2022/07/08 00:52:41;;;;;;;11.38;6.50;;;;;;;;;;8434204;28;20044;-93
2022/07/08 00:56:46;;;;;;;9.63;5.93;;;;;;;;;;8435050;28;20101;-93
2022/07/08 01:00:52;;;;;;;8.60;6.22;;;;;;;;;;8434488;28;20055;-93
2022/07/08 01:04:58;;;;;;;9.25;6.35;;;;;;;;;;8433068;28;20048;-93
2022/07/08 01:09:02;;;;;;;11.40;6.70;;;;;;;;;;8434305;28;20044;-92
2022/07/08 01:13:07;;;;;;;8.73;6.32;;;;;;;;;;8433179;28;20089;-92
2022/07/08 01:17:12;;;;;;;9.60;6.30;;;;;;;;;;8435253;28;20044;-90
2022/07/08 01:21:20;;;;;;;8.52;6.35;;;;;;;;;;8434709;28;20043;-93
2022/07/08 01:25:23;;;;;;;9.93;6.30;;;;;;;;;;8433970;28;20043;-92
2022/07/08 01:29:28;;;;;;;10.20;5.82;;;;;;;;;;8433225;28;20039;-92
2022/07/08 01:33:32;;;;;;;14.48;6.00;;;;;;;;;;8432461;28;20051;-91
2022/07/08 01:37:38;;;;;;;8.52;6.93;;;;;;;;;;8433604;28;20043;-92
2022/07/08 01:41:44;;;;;;;10.57;6.30;;;;;;;;;;8432363;28;20051;-92
2022/07/08 01:45:51;;;;;;;9.40;5.80;;;;;;;;;;8432896;28;20036;-92
2022/07/08 01:49:59;;;;;;;10.98;6.57;;;;;;;;;;8432430;28;20071;-93
2022/07/08 01:54:07;;;;;;;8.63;6.40;;;;;;;;;;8434174;28;20040;-93
2022/07/08 01:58:12;;;;;;;9.02;6.43;;;;;;;;;;8432240;28;20044;-92
2022/07/08 02:02:18;;;;;;;10.57;6.05;;;;;;;;;;8432647;28;20044;-93
2022/07/08 02:06:23;;;;;;;8.60;5.18;;;;;;;;;;8431994;28;20044;-96
2022/07/08 02:12:18;;;;;;;10.63;5.97;;;;;;;;;;8434940;28;20052;-94
2022/07/08 02:15:01;;;;;;;8.80;5.78;;;;;;;;;;8432815;28;20048;-94
2022/07/08 02:19:07;;;;;;;9.18;5.40;;;;;;;;;;8433842;28;20051;-94
2022/07/08 02:23:12;;;;;;;11.23;5.82;;;;;;;;;;8432600;28;20040;-92
2022/07/08 02:27:18;;;;;;;7.13;4.95;;;;;;;;;;8433657;28;20051;-94
2022/07/08 02:31:23;;;;;;;7.38;5.40;;;;;;;;;;8435331;28;20040;-90
2022/07/08 02:35:28;;;;;;;11.88;6.90;;;;;;;;;;8432554;28;20055;-92
2022/07/08 02:39:35;;;;;;;14.43;6.43;;;;;;;;;;8432924;28;20039;-90
2022/07/08 02:43:44;;;;;;;8.77;6.00;;;;;;;;;;8431287;28;20048;-90
2022/07/08 02:47:47;;;;;;;10.23;6.70;;;;;;;;;;8432014;28;20047;-90
2022/07/08 02:51:51;;;;;;;9.93;6.63;;;;;;;;;;8431797;28;20043;-89
2022/07/08 02:55:54;;;;;;;13.65;7.20;;;;;;;;;;8432710;28;20036;-92
2022/07/08 03:00:00;;;;;;;11.88;7.05;;;;;;;;;;8437955;28;20048;-89
2022/07/08 03:04:03;;;;;;;14.60;9.05;;;;;;;;;;8440050;28;20032;-92
2022/07/08 03:08:07;;;;;;;19.67;10.48;;;;;;;;;;8437069;28;20044;-91
2022/07/08 03:12:12;;;;;;;8.40;6.60;;;;;;;;;;8438429;28;20047;-93
2022/07/08 03:16:18;;;;;;;9.38;6.30;;;;;;;;;;8437191;28;20052;-94
2022/07/08 03:20:21;;;;;;;8.65;6.32;;;;;;;;;;8437066;28;20071;-94
2022/07/08 03:24:26;;;;;;;9.80;6.80;;;;;;;;;;8436593;28;20048;-94
2022/07/08 03:28:30;;;;;;;11.52;6.72;;;;;;;;;;8439316;28;20047;-90
2022/07/08 03:32:35;;;;;;;9.77;7.07;;;;;;;;;;8437473;28;20128;-90
2022/07/08 03:36:38;;;;;;;8.95;7.20;;;;;;;;;;8438437;28;20036;-90
2022/07/08 03:45:03;;;;;;;20.50;14.13;;;;;;;;;;8438028;28;20047;-90
2022/07/08 03:49:10;;;;;;;16.10;12.70;;;;;;;;;;8437384;28;20043;-90
2022/07/08 03:53:14;;;;;;;15.60;13.68;;;;;;;;;;8437128;28;20044;-93
2022/07/08 03:57:19;;;;;;;13.93;12.48;;;;;;;;;;8435659;28;20070;-93
2022/07/08 04:01:24;;;;;;;16.23;14.52;;;;;;;;;;8435111;28;20048;-93
2022/07/08 04:05:30;;;;;;;11.43;7.63;;;;;;;;;;8436803;28;20048;-94
2022/07/08 04:09:34;;;;;;;9.50;7.75;;;;;;;;;;8436061;28;20048;-94
2022/07/08 04:13:39;;;;;;;13.52;7.00;;;;;;;;;;8435385;28;20040;-93
2022/07/08 04:17:43;;;;;;;13.82;8.98;;;;;;;;;;8436445;28;20055;-93
2022/07/08 04:21:49;;;;;;;11.75;7.60;;;;;;;;;;8436062;28;20154;-95
2022/07/08 04:25:53;;;;;;;12.70;7.35;;;;;;;;;;8434588;28;20040;-94
2022/07/08 04:29:57;;;;;;;10.90;7.35;;;;;;;;;;8434458;28;20055;-92
2022/07/08 04:34:00;;;;;;;12.00;7.32;;;;;;;;;;8436168;28;20044;-92
2022/07/08 04:38:06;;;;;;;10.38;7.30;;;;;;;;;;8436645;28;20048;-94
2022/07/08 04:42:11;;;;;;;14.70;6.82;;;;;;;;;;8438689;28;20044;-93
2022/07/08 04:46:16;;;;;;;12.02;7.78;;;;;;;;;;8436997;28;20077;-94
2022/07/08 04:50:20;;;;;;;12.23;7.22;;;;;;;;;;8438139;28;20065;-93
2022/07/08 04:54:27;;;;;;;15.30;7.90;;;;;;;;;;8437220;28;20036;-93
2022/07/08 04:58:32;;;;;;;8.95;7.20;;;;;;;;;;8440482;28;20055;-94
2022/07/08 05:02:37;;;;;;;12.00;8.10;;;;;;;;;;8436064;28;20052;-95
2022/07/08 05:06:41;;;;;;;11.15;6.90;;;;;;;;;;8434775;28;20044;-93
2022/07/08 05:10:49;;;;;;;11.55;6.65;;;;;;;;;;8434901;28;20078;-95
2022/07/08 05:14:54;;;;;;;10.52;7.47;;;;;;;;;;8434647;28;20040;-93
2022/07/08 05:19:12;;;;;;;11.73;7.78;;;;;;;;;;8440314;28;20044;-92
2022/07/08 05:23:19;;;;;;;10.65;7.70;;;;;;;;;;8439149;28;20052;-93
2022/07/08 05:27:28;;;;;;;13.88;7.78;;;;;;;;;;8434576;28;20039;-93
2022/07/08 05:31:34;;;;;;;13.98;7.22;;;;;;;;;;8433007;28;20047;-93
2022/07/08 05:35:40;;;;;;;8.45;6.05;;;;;;;;;;8433847;28;20055;-92
2022/07/08 05:39:45;;;;;;;11.23;7.00;;;;;;;;;;8434194;28;20047;-94
2022/07/08 05:43:54;;;;;;;14.95;8.95;;;;;;;;;;8432070;28;20043;-93
2022/07/08 05:48:03;;;;;;;15.55;8.95;;;;;;;;;;8432119;28;20047;-92
2022/07/08 05:52:10;;;;;;;12.93;7.15;;;;;;;;;;8431985;28;20051;-92
2022/07/08 05:56:15;;;;;;;13.05;7.10;;;;;;;;;;8434270;28;20043;-91
2022/07/08 06:00:24;;;;;;;10.25;6.35;;;;;;;;;;8437275;28;20052;-90
2022/07/08 06:04:29;;;;;;;10.25;6.13;;;;;;;;;;8433818;28;20047;-91
2022/07/08 06:13:37;;;;;;;8.73;5.53;;;;;;;;;;8392041;28;20140;-95
2022/07/08 06:17:49;;;;;;;9.20;4.88;;;;;;;;;;8394466;28;20043;-96
2022/07/08 06:21:58;;;;;;;7.50;4.55;;;;;;;;;;8388074;28;20049;-96
2022/07/08 06:26:07;;;;;;;8.18;4.75;;;;;;;;;;8392506;28;20048;-96
2022/07/08 06:30:13;;;;;;;5.85;4.13;;;;;;;;;;8382526;28;20082;-96
2022/07/08 06:34:23;;;;;;;7.85;4.13;;;;;;;;;;8396825;28;20090;-95
2022/07/08 06:38:28;;;;;;;5.32;4.13;;;;;;;;;;8394168;28;20097;-91
2022/07/08 06:42:34;;;;;;;6.20;3.92;;;;;;;;;;8378964;28;20037;-92
2022/07/08 06:46:38;;;;;;;6.20;3.97;;;;;;;;;;8378126;28;20113;-93
2022/07/08 06:50:45;;;;;;;4.63;3.63;;;;;;;;;;8424589;28;20101;-95
2022/07/08 06:54:49;;;;;;;5.03;3.45;;;;;;;;;;8431399;28;20062;-92
2022/07/08 06:58:56;;;;;;;7.07;4.00;;;;;;;;;;8433899;28;20040;-92
2022/07/08 07:03:04;;;;;;;5.90;3.90;;;;;;;;;;8432298;28;20055;-93
2022/07/08 07:07:13;;;;;;;5.03;3.20;;;;;;;;;;8432603;28;20044;-94
2022/07/08 07:11:17;;;;;;;5.25;3.38;;;;;;;;;;8431862;28;20522;-94
2022/07/08 07:15:23;;;;;;;4.97;3.42;;;;;;;;;;8431725;28;20102;-95
2022/07/08 07:19:28;;;;;;;5.57;3.33;;;;;;;;;;8431310;28;20035;-94
2022/07/08 07:23:36;;;;;;;7.30;3.28;;;;;;;;;;8432101;28;20169;-94
2022/07/08 07:27:41;;;;;;;4.70;3.50;;;;;;;;;;8431573;28;20043;-93
2022/07/08 07:31:47;;;;;;;6.72;3.65;;;;;;;;;;8431555;28;20048;-95
2022/07/08 07:35:52;;;;;;;6.32;4.07;;;;;;;;;;8432906;28;20036;-96
2022/07/08 07:39:59;;;;;;;7.03;3.50;;;;;;;;;;8431935;28;20040;-94
2022/07/08 07:44:04;;;;;;;9.18;3.30;;;;;;;;;;8433229;28;20075;-93
2022/07/08 07:48:09;;;;;;;4.90;3.15;;;;;;;;;;8438158;28;20065;-95
2022/07/08 07:52:13;;;;;;;5.03;3.30;;;;;;;;;;8439935;28;20047;-96
2022/07/08 07:56:21;;;;;;;13.00;5.22;;;;;;;;;;8438141;28;20048;-95
2022/07/08 08:00:25;;;;;;;9.18;4.20;;;;;;;;;;8440512;28;20056;-95
2022/07/08 08:04:32;;;;;;;8.45;4.28;;;;;;;;;;8444703;28;20044;-95
2022/07/08 08:08:36;;;;;;;6.65;4.25;;;;;;;;;;8441389;28;20099;-94
2022/07/08 08:12:44;;;;;;;12.15;5.95;;;;;;;;;;8437255;28;20040;-95
2022/07/08 08:16:49;;;;;;;8.88;4.35;;;;;;;;;;8436581;28;20036;-95
2022/07/08 08:20:55;;;;;;;6.97;4.15;;;;;;;;;;8436436;28;20040;-95
2022/07/08 08:25:21;;;;;;;7.57;4.00;;;;;;;;;;8438062;28;20047;-95
2022/07/08 08:30:46;;;;;;;9.32;4.50;;;;;;;;;;8435218;28;20052;-94
2022/07/08 08:35:32;;;;;;;7.93;3.50;;;;;;;;;;8434411;28;20044;-95
2022/07/08 08:40:00;;;;;;;6.28;3.35;;;;;;;;;;8435153;28;20089;-95
2022/07/08 08:44:42;;;;;;;3.70;2.85;;;;;;;;;;8433316;28;20040;-96
2022/07/08 08:48:59;;;;;;;7.90;3.45;;;;;;;;;;8434364;28;20044;-94
2022/07/08 08:53:37;;;;;;;5.07;3.20;;;;;;;;;;8435282;28;20036;-94
2022/07/08 08:58:11;;;;;;;7.75;3.50;;;;;;;;;;8433930;28;20048;-93
2022/07/08 09:02:18;;;;;;;4.22;3.05;;;;;;;;;;8433937;28;20056;-94
2022/07/08 09:06:23;;;;;;;8.68;3.25;;;;;;;;;;8435625;28;20043;-94
2022/07/08 09:10:55;;;;;;;5.70;3.50;;;;;;;;;;8433527;28;20047;-93
2022/07/08 09:15:08;;;;;;;33.05;16.48;;;;;;;;;;8436158;28;20044;-95
2022/07/08 09:19:21;;;;;;;58.17;29.90;;;;;;;;;;8435321;28;20042;-92
2022/07/08 09:23:43;;;;;;;13.95;9.27;;;;;;;;;;8434955;28;20077;-92
2022/07/08 09:28:00;;;;;;;4.95;3.08;;;;;;;;;;8433318;28;20059;-93
2022/07/08 09:32:14;;;;;;;7.80;4.90;;;;;;;;;;8436027;28;20043;-91
2022/07/08 09:36:22;;;;;;;5.15;3.10;;;;;;;;;;8434637;28;20044;-95
2022/07/08 09:40:30;;;;;;;5.45;3.90;;;;;;;;;;8433917;28;20040;-95
2022/07/08 09:44:36;;;;;;;17.30;9.52;;;;;;;;;;8432862;28;20039;-94
2022/07/08 09:48:41;;;;;;;13.20;9.15;;;;;;;;;;8433781;28;20040;-91
2022/07/08 09:52:47;;;;;;;5.43;2.95;;;;;;;;;;8433127;28;20074;-93
2022/07/08 09:57:02;;;;;;;4.93;2.80;;;;;;;;;;8433263;28;20040;-94
2022/07/08 10:01:09;;;;;;;10.52;7.85;;;;;;;;;;8432808;28;20083;-93
2022/07/08 10:05:16;;;;;;;6.80;4.93;;;;;;;;;;8434183;28;20070;-93
2022/07/08 10:09:25;;;;;;;9.27;6.28;;;;;;;;;;8430597;28;20047;-91
2022/07/08 10:13:35;;;;;;;5.20;3.28;;;;;;;;;;8432791;28;20050;-92
2022/07/08 10:17:47;;;;;;;3.67;2.75;;;;;;;;;;8432951;28;20044;-94
2022/07/08 10:22:02;;;;;;;5.25;3.35;;;;;;;;;;8431815;28;20109;-94
2022/07/08 10:26:13;;;;;;;4.22;2.45;;;;;;;;;;8431540;28;20051;-94
2022/07/08 10:30:21;;;;;;;2.65;2.45;;;;;;;;;;8431516;28;20044;-93
2022/07/08 10:34:35;;;;;;;3.90;2.90;;;;;;;;;;8431003;28;20062;-93
2022/07/08 10:38:41;;;;;;;3.92;2.90;;;;;;;;;;8431442;28;20512;-91
2022/07/08 10:42:46;;;;;;;2.75;2.47;;;;;;;;;;8432223;28;20047;-92
2022/07/08 10:46:53;;;;;;;3.10;2.30;;;;;;;;;;8432797;28;20044;-92
2022/07/08 10:51:00;;;;;;;3.60;1.70;;;;;;;;;;8431913;28;20454;-90
2022/07/08 10:55:14;;;;;;;2.28;1.20;;;;;;;;;;8431835;28;20044;-93
2022/07/08 10:59:21;;;;;;;1.20;1.10;;;;;;;;;;8430707;28;20044;-91
2022/07/08 11:03:45;;;;;;;0.88;0.88;;;;;;;;;;8432023;28;20036;-93
2022/07/08 11:07:52;;;;;;;4.85;1.33;;;;;;;;;;8430235;28;20100;-94
2022/07/08 11:11:59;;;;;;;1.00;1.00;;;;;;;;;;8432842;28;20055;-92
2022/07/08 11:16:04;;;;;;;1.52;1.42;;;;;;;;;;8432034;28;20098;-94
2022/07/08 11:20:12;;;;;;;3.28;1.40;;;;;;;;;;8433659;28;20048;-94
2022/07/08 11:24:20;;;;;;;1.92;1.63;;;;;;;;;;8439341;28;20044;-95
2022/07/08 11:28:26;;;;;;;3.38;1.80;;;;;;;;;;8437071;28;20044;-93
2022/07/08 11:32:34;;;;;;;5.95;2.42;;;;;;;;;;8439700;28;20036;-94
2022/07/08 11:36:40;;;;;;;2.53;2.15;;;;;;;;;;8437516;28;20044;-90
2022/07/08 11:40:49;;;;;;;3.85;2.40;;;;;;;;;;8439129;28;20040;-90
2022/07/08 11:45:06;;;;;;;5.00;2.70;;;;;;;;;;8438200;28;20040;-94
2022/07/08 11:49:12;;;;;;;4.80;2.92;;;;;;;;;;8440770;28;20047;-95
2022/07/08 11:53:25;;;;;;;2.80;2.20;;;;;;;;;;8440397;28;20044;-94
2022/07/08 11:57:32;;;;;;;2.30;1.90;;;;;;;;;;8438820;28;20583;-91
2022/07/08 12:01:39;;;;;;;1.80;1.48;;;;;;;;;;8436566;28;20488;-89
2022/07/08 12:05:45;;;;;;;2.97;1.80;;;;;;;;;;8436663;28;20066;-92
2022/07/08 12:10:03;;;;;;;3.63;2.22;;;;;;;;;;8441674;28;20048;-89
2022/07/08 12:14:44;;;;;;;2.83;1.80;;;;;;;;;;8442989;28;20075;-94
2022/07/08 12:18:58;;;;;;;2.95;2.25;;;;;;;;;;8438408;28;20036;-95
2022/07/08 12:23:24;;;;;;;3.38;2.05;;;;;;;;;;8437053;28;20044;-96
2022/07/08 12:27:35;;;;;;;3.00;2.10;;;;;;;;;;8438262;28;20044;-94
2022/07/08 12:31:45;;;;;;;4.80;2.40;;;;;;;;;;8436784;28;20054;-94
2022/07/08 12:35:57;;;;;;;2.63;2.03;;;;;;;;;;8438144;28;20051;-91
2022/07/08 12:40:18;;;;;;;3.28;2.33;;;;;;;;;;8442002;28;20048;-95
2022/07/08 12:44:44;;;;;;;2.95;2.28;;;;;;;;;;8444183;28;20040;-95
2022/07/08 12:48:58;;;;;;;3.50;2.40;;;;;;;;;;8447843;28;20044;-95
2022/07/08 12:53:09;;;;;;;5.25;2.78;;;;;;;;;;8435525;28;20052;-92
2022/07/08 12:57:16;;;;;;;6.05;3.33;;;;;;;;;;8436548;28;20036;-94
2022/07/08 13:01:55;;;;;;;4.43;3.17;;;;;;;;;;8434466;28;20048;-92
2022/07/08 13:06:18;;;;;;;;;;;;;;;;;;8433329;28;20051;-95
2022/07/08 13:10:52;;;;;;;5.47;2.78;;;;;;;;;;8433295;28;19945;-93
2022/07/08 13:15:08;;;;;;;4.45;3.03;;;;;;;;;;8433853;28;20047;-94
2022/07/08 13:19:48;;;;;;;5.05;3.20;;;;;;;;;;8434407;28;20055;-91
2022/07/08 13:24:01;;;;;;;7.18;3.88;;;;;;;;;;8433468;28;20131;-93
2022/07/08 13:28:07;;;;;;;6.35;4.63;;;;;;;;;;8433917;28;20051;-94
2022/07/08 13:32:12;;;;;;;8.93;3.95;;;;;;;;;;8436669;28;20042;-91
2022/07/08 13:36:18;;;;;;;7.15;2.58;;;;;;;;;;8438987;28;20040;-92
2022/07/08 13:40:26;;;;;;;7.03;2.60;;;;;;;;;;8437658;28;20064;-91
2022/07/08 13:44:32;;;;;;;9.70;2.92;;;;;;;;;;8443545;28;20105;-92
2022/07/08 13:48:38;;;;;;;4.32;2.30;;;;;;;;;;8450428;28;20036;-89
2022/07/08 13:52:45;;;;;;;5.60;2.45;;;;;;;;;;8448689;28;20044;-90
2022/07/08 13:56:54;;;;;;;6.85;2.45;;;;;;;;;;8436389;28;20063;-91
2022/07/08 14:01:04;;;;;;;6.78;2.67;;;;;;;;;;8438133;28;20056;-93
2022/07/08 14:05:10;;;;;;;4.60;2.40;;;;;;;;;;8434970;28;20044;-92
2022/07/08 14:09:28;;;;;;;5.10;2.35;;;;;;;;;;8433265;28;20067;-91
2022/07/08 14:14:07;;;;;;;4.30;2.35;;;;;;;;;;8433140;28;20040;-90
2022/07/08 14:19:02;;;;;;;7.78;2.65;;;;;;;;;;8429621;28;20040;-92
2022/07/08 14:23:08;;;;;;;6.32;2.75;;;;;;;;;;8433542;28;20040;-92
2022/07/08 14:27:16;;;;;;;4.00;2.42;;;;;;;;;;8431948;28;20156;-89
2022/07/08 14:31:24;;;;;;;9.07;3.80;;;;;;;;;;8433265;28;20050;-92
2022/07/08 14:35:29;;;;;;;6.65;3.40;;;;;;;;;;8433358;28;20043;-95
2022/07/08 14:39:35;;;;;;;6.47;3.20;;;;;;;;;;8432648;28;20040;-91
2022/07/08 14:43:42;;;;;;;7.65;3.60;;;;;;;;;;8432487;28;20047;-89
2022/07/08 14:47:55;;;;;;;7.80;3.70;;;;;;;;;;8434634;28;20044;-92
2022/07/08 14:52:04;;;;;;;9.48;4.63;;;;;;;;;;8433623;28;20153;-93
2022/07/08 14:56:12;;;;;;;11.68;3.83;;;;;;;;;;8441544;28;20044;-93
2022/07/08 15:00:18;;;;;;;10.85;5.03;;;;;;;;;;8442765;28;20055;-93
2022/07/08 15:04:25;;;;;;;7.72;3.90;;;;;;;;;;8444604;28;20038;-93
2022/07/08 15:08:30;;;;;;;5.57;3.30;;;;;;;;;;8440737;28;20040;-93
2022/07/08 15:12:38;;;;;;;6.00;2.92;;;;;;;;;;8450356;28;20044;-94
2022/07/08 15:16:43;;;;;;;6.80;4.50;;;;;;;;;;8442941;28;20036;-91
2022/07/08 15:20:51;;;;;;;9.13;6.60;;;;;;;;;;8440227;28;20039;-93
2022/07/08 15:24:55;;;;;;;7.03;4.30;;;;;;;;;;8439448;28;20051;-92
2022/07/08 15:29:01;;;;;;;5.57;4.15;;;;;;;;;;8442564;28;20043;-91
2022/07/08 15:33:06;;;;;;;11.90;6.78;;;;;;;;;;8445228;28;20043;-92
2022/07/08 15:37:13;;;;;;;9.05;6.95;;;;;;;;;;8443628;28;20078;-94
2022/07/08 15:41:18;;;;;;;7.40;4.15;;;;;;;;;;8443455;28;20043;-91
2022/07/08 15:45:25;;;;;;;8.38;4.82;;;;;;;;;;8438419;28;20036;-91
2022/07/08 15:49:29;;;;;;;9.43;4.88;;;;;;;;;;8436674;28;20085;-91
2022/07/08 15:53:35;;;;;;;6.95;4.75;;;;;;;;;;8437596;28;20067;-90
2022/07/08 15:57:40;;;;;;;9.32;5.30;;;;;;;;;;8438880;28;20064;-92
2022/07/08 16:01:49;;;;;;;8.43;5.22;;;;;;;;;;8437455;28;20059;-94
2022/07/08 16:05:56;;;;;;;11.23;5.43;;;;;;;;;;8435428;28;20063;-89
2022/07/08 16:10:02;;;;;;;11.60;5.93;;;;;;;;;;8436461;28;20050;-90
2022/07/08 16:14:06;;;;;;;9.45;5.70;;;;;;;;;;8437322;28;20047;-90
2022/07/08 16:18:12;;;;;;;8.60;5.40;;;;;;;;;;8435206;28;20047;-90
2022/07/08 16:22:16;;;;;;;9.43;5.35;;;;;;;;;;8435993;28;20039;-92
2022/07/08 16:26:23;;;;;;;9.85;5.57;;;;;;;;;;8435737;28;20040;-91
2022/07/08 16:30:28;;;;;;;9.32;5.75;;;;;;;;;;8437036;28;20040;-86
2022/07/08 16:34:35;;;;;;;7.13;5.13;;;;;;;;;;8445470;28;20036;-92
2022/07/08 16:38:40;;;;;;;8.32;4.72;;;;;;;;;;8442352;28;20121;-91
2022/07/08 16:42:49;;;;;;;9.57;4.80;;;;;;;;;;8437611;28;20044;-91
2022/07/08 16:46:54;;;;;;;9.02;4.78;;;;;;;;;;8437009;28;20051;-93
2022/07/08 16:51:02;;;;;;;7.88;4.07;;;;;;;;;;8435766;28;20052;-91
2022/07/08 16:55:08;;;;;;;10.10;4.47;;;;;;;;;;8438759;28;20044;-94
2022/07/08 16:59:16;;;;;;;7.05;4.50;;;;;;;;;;8437811;28;20044;-92
2022/07/08 17:03:21;;;;;;;8.93;3.95;;;;;;;;;;8440621;28;20052;-90
2022/07/08 17:07:26;;;;;;;7.85;4.35;;;;;;;;;;8436215;28;20036;-90
2022/07/08 17:11:31;;;;;;;9.05;5.10;;;;;;;;;;8434641;28;20040;-91
2022/07/08 17:15:41;;;;;;;8.65;4.43;;;;;;;;;;8437048;28;20047;-92
2022/07/08 17:19:46;;;;;;;15.20;7.07;;;;;;;;;;8436590;28;20089;-91
2022/07/08 17:23:52;;;;;;;35.97;14.77;;;;;;;;;;8437394;28;20043;-91
2022/07/08 17:27:57;;;;;;;14.02;6.57;;;;;;;;;;8434965;28;20035;-94
2022/07/08 17:32:11;;;;;;;14.18;7.70;;;;;;;;;;8435977;28;20093;-96
2022/07/08 17:36:16;;;;;;;12.85;6.35;;;;;;;;;;8436512;28;20071;-92
2022/07/08 17:45:31;;;;;;;10.65;5.80;;;;;;;;;;8435232;28;20040;-92
2022/07/08 17:49:44;;;;;;;12.40;5.47;;;;;;;;;;8433841;28;20043;-89
2022/07/08 17:53:51;;;;;;;8.02;4.47;;;;;;;;;;8432679;28;20109;-89
2022/07/08 17:57:56;;;;;;;49.63;27.80;;;;;;;;;;8433803;28;20093;-94
2022/07/08 18:02:03;;;;;;;13.00;6.63;;;;;;;;;;8433659;28;20101;-90
2022/07/08 18:07:09;;;;;;;11.32;6.00;;;;;;;;;;8433538;28;20069;-90
2022/07/08 18:11:32;;;;;;;11.35;6.45;;;;;;;;;;8433724;28;20044;-92
2022/07/08 18:15:47;;;;;;;10.30;6.00;;;;;;;;;;8431768;28;20126;-93
2022/07/08 18:19:58;;;;;;;10.13;6.45;;;;;;;;;;8435982;28;20047;-92
2022/07/08 18:24:04;;;;;;;13.18;6.53;;;;;;;;;;8433358;28;20087;-91
2022/07/08 18:28:11;;;;;;;11.35;6.00;;;;;;;;;;8432049;28;20032;-91
2022/07/08 18:32:18;;;;;;;13.90;6.88;;;;;;;;;;8433254;28;20043;-93
2022/07/08 18:36:25;;;;;;;14.20;6.88;;;;;;;;;;8433956;28;20051;-93
2022/07/08 18:40:34;;;;;;;14.77;7.22;;;;;;;;;;8431548;28;20063;-92
2022/07/08 18:44:48;;;;;;;13.95;8.40;;;;;;;;;;8431323;28;20050;-91
2022/07/08 18:48:58;;;;;;;12.60;6.93;;;;;;;;;;8433304;28;20067;-90
2022/07/08 18:53:05;;;;;;;12.63;6.73;;;;;;;;;;8431116;28;20048;-91
2022/07/08 18:57:10;;;;;;;11.82;6.72;;;;;;;;;;8432740;28;20044;-90
2022/07/08 19:01:20;;;;;;;16.40;8.88;;;;;;;;;;8430396;28;20048;-91
2022/07/08 19:05:31;;;;;;;18.88;9.77;;;;;;;;;;8432452;28;20122;-96
2022/07/08 19:09:39;;;;;;;22.95;9.10;;;;;;;;;;8431987;28;20043;-90
2022/07/08 19:14:11;;;;;;;21.08;9.27;;;;;;;;;;8432100;28;20131;-92
2022/07/08 19:18:21;;;;;;;16.10;8.23;;;;;;;;;;8433357;28;20040;-94
2022/07/08 19:22:28;;;;;;;12.70;7.18;;;;;;;;;;8430780;28;20073;-95
2022/07/08 19:26:35;;;;;;;14.40;6.05;;;;;;;;;;8431916;28;20052;-91
2022/07/08 19:30:43;;;;;;;10.43;5.72;;;;;;;;;;8432505;28;20040;-95
2022/07/08 19:34:53;;;;;;;11.90;5.78;;;;;;;;;;8432276;28;20097;-92
2022/07/08 19:39:00;;;;;;;11.32;5.70;;;;;;;;;;8432700;28;20042;-92
2022/07/08 19:43:24;;;;;;;7.43;4.63;;;;;;;;;;8437156;28;20048;-94
2022/07/08 19:47:30;;;;;;;9.35;4.90;;;;;;;;;;8446486;28;20075;-94
2022/07/08 19:51:46;;;;;;;8.60;4.93;;;;;;;;;;8461906;28;20040;-96
2022/07/08 19:56:00;;;;;;;12.25;4.60;;;;;;;;;;8446290;28;20036;-95
2022/07/08 20:00:17;;;;;;;8.45;5.13;;;;;;;;;;8439753;28;20048;-94
2022/07/08 20:04:30;;;;;;;10.88;5.70;;;;;;;;;;8446386;28;20040;-96
2022/07/08 20:08:49;;;;;;;10.50;5.97;;;;;;;;;;8437259;28;20468;-94
2022/07/08 20:12:55;;;;;;;9.77;7.07;;;;;;;;;;8437136;28;20059;-95
2022/07/08 20:17:18;;;;;;;13.75;6.30;;;;;;;;;;8436766;28;20071;-94
2022/07/08 20:21:50;;;;;;;10.70;6.53;;;;;;;;;;8433490;28;20044;-95
2022/07/08 20:26:02;;;;;;;12.98;7.20;;;;;;;;;;8435949;28;20048;-94
2022/07/08 20:30:13;;;;;;;8.13;5.43;;;;;;;;;;8435407;28;20104;-94
2022/07/08 20:34:31;;;;;;;12.80;7.35;;;;;;;;;;8435770;28;20052;-95
2022/07/08 20:38:39;;;;;;;16.35;8.32;;;;;;;;;;8436338;28;20040;-94
2022/07/08 20:43:01;;;;;;;20.13;8.60;;;;;;;;;;8434792;28;20051;-96
2022/07/08 20:47:22;;;;;;;20.38;8.80;;;;;;;;;;8436603;28;20036;-95
2022/07/08 20:52:09;;;;;;;17.15;7.40;;;;;;;;;;8434676;28;20082;-96
2022/07/08 20:56:17;;;;;;;17.10;8.10;;;;;;;;;;8433173;28;20043;-95
2022/07/08 21:00:24;;;;;;;15.35;6.88;;;;;;;;;;8433999;28;20044;-95
2022/07/08 21:04:29;;;;;;;12.00;6.00;;;;;;;;;;8433868;28;20047;-94
2022/07/08 21:08:34;;;;;;;9.55;4.85;;;;;;;;;;8433669;28;20109;-93
2022/07/08 21:12:38;;;;;;;8.32;3.80;;;;;;;;;;8433612;28;20047;-93
2022/07/08 21:16:46;;;;;;;9.43;3.85;;;;;;;;;;8433683;28;20079;-94
2022/07/08 21:21:19;;;;;;;8.23;3.20;;;;;;;;;;8464190;28;20028;-95
2022/07/08 21:25:48;;;;;;;9.10;3.10;;;;;;;;;;8469316;28;20039;-94
2022/07/08 21:29:57;;;;;;;6.32;3.50;;;;;;;;;;8450081;28;20048;-94
2022/07/08 21:34:49;;;;;;;7.57;3.70;;;;;;;;;;8479556;28;20068;-96
2022/07/08 21:39:12;;;;;;;6.78;3.40;;;;;;;;;;8481636;28;20139;-95
2022/07/08 21:43:18;;;;;;;5.35;3.65;;;;;;;;;;8445032;28;20047;-95
2022/07/08 21:47:29;;;;;;;8.10;3.70;;;;;;;;;;8451917;28;20054;-96
2022/07/08 21:51:35;;;;;;;8.02;3.83;;;;;;;;;;8448367;28;20043;-93
2022/07/08 21:55:47;;;;;;;7.30;3.97;;;;;;;;;;8475641;28;20051;-96
2022/07/08 21:59:52;;;;;;;6.95;3.67;;;;;;;;;;8453729;28;20043;-95
2022/07/08 22:04:04;;;;;;;5.90;3.47;;;;;;;;;;8437438;28;20048;-96
2022/07/08 22:08:10;;;;;;;8.18;4.03;;;;;;;;;;8435361;28;20093;-95
2022/07/08 22:12:17;;;;;;;5.88;3.50;;;;;;;;;;8436225;28;20046;-96
2022/07/08 22:16:22;;;;;;;5.22;3.45;;;;;;;;;;8434659;28;20051;-92
2022/07/08 22:20:26;;;;;;;11.82;3.45;;;;;;;;;;8435224;28;20040;-94
2022/07/08 22:24:31;;;;;;;7.70;3.15;;;;;;;;;;8432412;28;20044;-93
2022/07/08 22:28:38;;;;;;;8.38;3.30;;;;;;;;;;8434406;28;20036;-96
2022/07/08 22:32:44;;;;;;;9.85;3.53;;;;;;;;;;8429060;28;20048;-95
2022/07/08 22:36:47;;;;;;;5.25;3.15;;;;;;;;;;8433862;28;20062;-95
2022/07/08 22:40:52;;;;;;;7.25;3.80;;;;;;;;;;8432367;28;20141;-91
2022/07/08 22:44:58;;;;;;;4.03;2.97;;;;;;;;;;8431150;28;20044;-93
2022/07/08 22:49:02;;;;;;;7.38;3.20;;;;;;;;;;8433121;28;20081;-92
2022/07/08 22:53:06;;;;;;;6.20;3.08;;;;;;;;;;8432272;28;20036;-94
2022/07/08 22:57:11;;;;;;;15.15;3.67;;;;;;;;;;8432163;28;20040;-94
2022/07/08 23:01:16;;;;;;;6.28;3.50;;;;;;;;;;8430526;28;20048;-93
2022/07/08 23:05:22;;;;;;;10.95;3.83;;;;;;;;;;8433096;28;20062;-94
2022/07/08 23:09:29;;;;;;;6.93;3.90;;;;;;;;;;8432320;28;20040;-94
2022/07/08 23:13:33;;;;;;;9.25;4.45;;;;;;;;;;8431027;28;20044;-94
2022/07/08 23:17:39;;;;;;;6.65;3.67;;;;;;;;;;8438981;28;20065;-93
2022/07/08 23:21:43;;;;;;;6.60;4.10;;;;;;;;;;8438083;28;20059;-93
2022/07/08 23:25:47;;;;;;;7.15;4.10;;;;;;;;;;8437828;28;20044;-92
2022/07/08 23:29:52;;;;;;;10.30;4.30;;;;;;;;;;8437064;28;20044;-92
2022/07/08 23:33:58;;;;;;;9.45;4.63;;;;;;;;;;8436835;28;20052;-93
2022/07/08 23:38:03;;;;;;;6.05;4.30;;;;;;;;;;8437158;28;20040;-94
2022/07/08 23:42:07;;;;;;;8.88;4.80;;;;;;;;;;8437391;28;20047;-93
2022/07/08 23:46:11;;;;;;;5.88;4.32;;;;;;;;;;8436986;28;20048;-93
2022/07/08 23:50:17;;;;;;;11.93;4.70;;;;;;;;;;8437378;28;20051;-94
2022/07/08 23:54:21;;;;;;;7.53;4.15;;;;;;;;;;8438438;28;20047;-94
2022/07/08 23:58:25;;;;;;;11.05;4.80;;;;;;;;;;8437233;28;20084;-93
